»·PEaware :: N822JH L88-L52

N822JH :: L88-L52

FLIGHT INFORMATION

Flight Status: Arrived
Operator: Privately registered:
United States
More flights under this callsign
Pilot: Aleksandr Z. (18023)
Aircraft: PIPER PA-24 COMMANCHE
(PA24)
More flights by this aircraft type
Origin: L88 New Cuyama
United States
Destination: L52 Oceano Co
United States
More flights between these airports :: More routes between these airports
Route:
File this flight plan on PilotEdge
Remarks: novice
Altitude:
(Current/Filed)
6,500ft
Speed:
(Current/Filed)
160kts
Departed: 22-Jan-19 10:09 AM
Arrived: 22-Jan-19 10:38 AM
Distance/Time
Traveled:
47nm/0:29
Distance/Time
To Go:
Arrived

Flight Plot

Page will automatically refresh every two minutes.


Map Options




Map Legend


Flown Route
Filed Route
Departure Airport
Arrival Airport
Navaid (VOR, NDB)
Fix

Horizontal Profiles

Position Reports

Time Latitude Longitude Heading Altitude Ground
Speed
22-Jan-19 09:53 34.943321 -119.691668 26 2206ft 0kts
22-Jan-19 09:54 34.943321 -119.691668 26 2206ft 0kts
22-Jan-19 09:55 34.943321 -119.691668 26 2206ft 0kts
22-Jan-19 09:56 34.943321 -119.691668 26 2206ft 0kts
22-Jan-19 09:57 34.943321 -119.691668 26 2206ft 0kts
22-Jan-19 09:58 34.943321 -119.691668 26 2206ft 0kts
22-Jan-19 09:59 34.943323 -119.691667 26 2206ft 0kts
22-Jan-19 10:00 34.943325 -119.691666 26 2206ft 0kts
22-Jan-19 10:01 34.942965 -119.691069 204 2206ft 7kts
22-Jan-19 10:02 34.942400 -119.691243 147 2206ft 6kts
22-Jan-19 10:03 34.940294 -119.686414 116 2206ft 20kts
22-Jan-19 10:04 34.937978 -119.680737 115 2206ft 12kts
22-Jan-19 10:05 34.937461 -119.680145 104 2206ft 0kts
22-Jan-19 10:06 34.937459 -119.680136 104 2206ft 0kts
22-Jan-19 10:07 34.937474 -119.679841 17 2206ft 7kts
22-Jan-19 10:08 34.945557 -119.697883 299 2869ft 90kts
22-Jan-19 10:10 34.959038 -119.727059 300 4068ft 107kts
22-Jan-19 10:11 34.972753 -119.761889 296 5161ft 121kts
22-Jan-19 10:12 34.986761 -119.800937 296 6187ft 128kts
22-Jan-19 10:13 35.001647 -119.843455 296 6694ft 149kts
22-Jan-19 10:14 35.019213 -119.892769 296 6531ft 150kts
22-Jan-19 10:15 35.035462 -119.938845 295 6502ft 145kts
22-Jan-19 10:16 35.051479 -119.984153 296 6494ft 145kts
22-Jan-19 10:17 35.067545 -120.029855 296 6502ft 146kts
22-Jan-19 10:18 35.083263 -120.075749 293 6506ft 148kts
22-Jan-19 10:19 35.078619 -120.127177 263 6509ft 157kts
22-Jan-19 10:20 35.072191 -120.180882 272 6506ft 155kts
22-Jan-19 10:21 35.069201 -120.232789 267 6507ft 152kts
22-Jan-19 10:22 35.064856 -120.284064 269 6507ft 151kts
22-Jan-19 10:23 35.061166 -120.335291 268 6507ft 151kts
22-Jan-19 10:24 35.056940 -120.386806 268 6512ft 155kts
22-Jan-19 10:25 35.053184 -120.433579 268 5788ft 123kts
22-Jan-19 10:26 35.049329 -120.475352 267 4797ft 124kts
22-Jan-19 10:27 35.046633 -120.517622 277 3548ft 126kts
22-Jan-19 10:28 35.061469 -120.551656 309 2767ft 94kts
22-Jan-19 10:29 35.076666 -120.578151 309 1985ft 102kts
22-Jan-19 10:30 35.091528 -120.603203 303 1313ft 86kts
22-Jan-19 10:30 35.102618 -120.625000 298 486ft 85kts
22-Jan-19 10:32 35.112115 -120.658571 232 971ft 108kts
22-Jan-19 10:33 35.085117 -120.659079 113 1140ft 120kts
22-Jan-19 10:34 35.075716 -120.622542 111 1010ft 104kts
22-Jan-19 10:35 35.072563 -120.594309 39 985ft 82kts
22-Jan-19 10:36 35.089336 -120.599642 300 621ft 85kts
22-Jan-19 10:36 35.098727 -120.617149 299 106ft 65kts
22-Jan-19 10:37 35.102709 -120.623958 27 17ft 2kts
22-Jan-19 10:38 35.103099 -120.623989 206 17ft 0kts
22-Jan-19 10:39 35.103098 -120.623989 206 17ft 0kts
22-Jan-19 10:40 35.103098 -120.623989 206 17ft 0kts
22-Jan-19 10:41 35.103098 -120.623989 206 17ft 0kts
22-Jan-19 10:42 35.103098 -120.623989 206 17ft 0kts
22-Jan-19 10:43 35.103098 -120.623989 206 17ft 0kts
22-Jan-19 10:44 35.103098 -120.623989 206 17ft 0kts
22-Jan-19 10:45 35.103098 -120.623989 206 17ft 0kts
22-Jan-19 10:46 35.103098 -120.623989 206 17ft 0kts
22-Jan-19 10:47 35.103098 -120.623989 206 17ft 0kts

Navigation Log

Ident Type
Flight plan parsing failed, navigation log unavailable